Time;durP1;ratioP1;P1;durP2;ratioP2;P2;SDS_P1;SDS_P2;PMS_P1;PMS_P2;Temp;Humidity;BMP_temperature;BMP_pressure;BME280_temperature;BME280_humidity;BME280_pressure;Samples;Min_cycle;Max_cycle;Signal;HPM_P1;HPM_P2
2021/07/04 00:01:14;;;;;;;6.20;2.92;;;;;;;25.66;56.75;99888.75;5049008;28;20029;-72
2021/07/04 00:03:39;;;;;;;7.68;3.50;;;;;;;25.59;56.65;99886.06;5050718;28;20356;-72
2021/07/04 00:06:04;;;;;;;5.30;2.65;;;;;;;25.68;56.47;99886.66;5050562;28;20032;-72
2021/07/04 00:08:30;;;;;;;5.60;3.53;;;;;;;25.69;56.06;99878.38;5050609;28;20037;-72
2021/07/04 00:11:02;;;;;;;7.30;2.85;;;;;;;25.71;56.19;99884.38;5052723;28;20056;-72
2021/07/04 00:13:30;;;;;;;7.65;3.20;;;;;;;25.68;55.90;99890.16;5054216;28;20024;-72
2021/07/04 00:15:56;;;;;;;5.40;2.53;;;;;;;25.68;56.07;99884.78;5039904;28;20025;-72
2021/07/04 00:18:24;;;;;;;8.45;2.88;;;;;;;25.69;56.33;99881.06;5034266;28;20472;-72
2021/07/04 00:20:51;;;;;;;9.68;3.10;;;;;;;25.71;55.88;99873.63;5034165;28;20030;-72
2021/07/04 00:23:17;;;;;;;8.23;2.75;;;;;;;25.62;56.22;99874.09;5034522;28;20029;-72
2021/07/04 00:25:43;;;;;;;9.10;3.13;;;;;;;25.68;56.09;99867.84;5034108;28;20021;-72
2021/07/04 00:28:09;;;;;;;6.72;2.75;;;;;;;25.69;56.18;99875.69;5034050;28;20021;-72
2021/07/04 00:30:35;;;;;;;7.10;2.78;;;;;;;25.68;56.05;99871.34;5034026;28;20411;-72
2021/07/04 00:33:01;;;;;;;10.07;2.92;;;;;;;25.69;55.88;99878.38;5052473;28;20486;-72
2021/07/04 00:35:26;;;;;;;6.70;2.53;;;;;;;25.67;56.02;99875.09;5053821;28;20489;-72
2021/07/04 00:37:52;;;;;;;7.78;2.90;;;;;;;25.66;55.91;99859.16;5053955;28;20029;-72
2021/07/04 00:40:19;;;;;;;5.68;2.78;;;;;;;25.63;56.05;99860.44;5038841;28;20507;-72
2021/07/04 00:42:45;;;;;;;6.13;3.50;;;;;;;25.64;55.88;99866.63;5034099;28;20037;-72
2021/07/04 00:45:14;;;;;;;6.65;2.80;;;;;;;25.66;55.85;99859.16;5033767;28;20491;-72
2021/07/04 00:47:39;;;;;;;7.78;3.38;;;;;;;25.61;56.19;99861.66;5033719;28;20383;-72
2021/07/04 00:50:05;;;;;;;4.97;2.30;;;;;;;25.58;55.95;99860.25;5042993;28;20033;-72
2021/07/04 00:52:31;;;;;;;6.13;2.97;;;;;;;25.60;56.04;99860.84;5053803;28;20021;-72
2021/07/04 00:54:57;;;;;;;6.85;2.75;;;;;;;25.60;55.96;99855.47;5053608;28;20430;-72
2021/07/04 00:57:22;;;;;;;6.97;3.15;;;;;;;25.60;55.80;99855.47;5053811;28;20055;-72
2021/07/04 00:59:48;;;;;;;6.50;2.55;;;;;;;25.63;55.99;99860.44;5053598;28;20035;-72
2021/07/04 01:02:13;;;;;;;11.65;3.33;;;;;;;25.60;55.70;99858.16;5053305;28;20025;-72
2021/07/04 01:04:38;;;;;;;6.00;2.80;;;;;;;25.62;55.75;99853.41;5046047;28;20022;-72
2021/07/04 01:07:04;;;;;;;7.13;3.13;;;;;;;25.62;55.91;99861.47;5033821;28;20083;-72
2021/07/04 01:09:29;;;;;;;10.82;3.60;;;;;;;25.64;55.74;99850.50;5033378;28;20052;-72
2021/07/04 01:11:55;;;;;;;9.30;2.95;;;;;;;25.58;55.63;99846.81;5033380;28;20108;-72
2021/07/04 01:14:21;;;;;;;4.95;2.90;;;;;;;25.60;55.86;99839.34;5033241;28;20472;-72
2021/07/04 01:16:47;;;;;;;7.30;3.13;;;;;;;25.58;55.66;99841.44;5037126;28;20104;-72
2021/07/04 01:19:17;;;;;;;9.45;2.83;;;;;;;25.61;55.58;99832.94;5052993;28;20037;-72
2021/07/04 01:21:44;;;;;;;6.75;2.83;;;;;;;25.59;55.82;99835.00;5051986;28;20520;-72
2021/07/04 01:24:10;;;;;;;4.55;2.63;;;;;;;25.59;55.54;99834.19;5053382;28;20029;-75
2021/07/04 01:26:36;;;;;;;9.30;2.88;;;;;;;25.59;55.69;99831.50;5052931;28;20033;-74
2021/07/04 01:29:02;;;;;;;5.32;2.90;;;;;;;25.61;55.57;99829.41;5052832;28;20025;-74
2021/07/04 01:31:28;;;;;;;8.15;2.85;;;;;;;25.61;55.67;99819.50;5049776;28;20104;-74
2021/07/04 01:33:53;;;;;;;7.90;2.63;;;;;;;25.60;55.19;99827.78;5033010;28;20052;-74
2021/07/04 01:36:19;;;;;;;7.80;3.05;;;;;;;25.58;55.72;99825.31;5032861;28;20091;-72
2021/07/04 01:38:44;;;;;;;10.88;3.25;;;;;;;25.59;55.33;99818.88;5032810;28;20163;-72
2021/07/04 01:41:11;;;;;;;5.80;3.17;;;;;;;25.59;55.54;99815.38;5032762;28;20071;-72
2021/07/04 01:43:36;;;;;;;4.88;2.60;;;;;;;25.58;55.22;99817.25;5032694;28;20026;-72
2021/07/04 01:46:01;;;;;;;8.18;3.38;;;;;;;25.64;55.24;99807.47;5045963;28;20060;-72
2021/07/04 01:48:28;;;;;;;7.28;3.08;;;;;;;25.65;55.13;99807.28;5052365;28;20103;-72
2021/07/04 01:50:54;;;;;;;6.28;2.78;;;;;;;25.69;55.08;99803.09;5052908;28;20039;-72
2021/07/04 01:53:20;;;;;;;7.97;3.22;;;;;;;25.52;55.40;99807.34;5052701;28;20024;-72
2021/07/04 01:55:45;;;;;;;6.13;2.47;;;;;;;25.35;55.94;99804.34;5052616;28;20450;-72
2021/07/04 01:58:11;;;;;;;3.25;2.35;;;;;;;25.42;55.83;99810.50;5052376;28;20104;-72
2021/07/04 02:00:38;;;;;;;7.00;2.85;;;;;;;25.45;55.53;99803.88;5040156;28;20029;-72
2021/07/04 02:03:05;;;;;;;5.10;2.38;;;;;;;25.44;55.50;99802.25;5032314;28;20037;-72
2021/07/04 02:05:31;;;;;;;7.03;2.97;;;;;;;25.43;55.57;99792.53;5032584;28;20027;-72
2021/07/04 02:07:56;;;;;;;7.75;2.50;;;;;;;25.45;55.32;99791.25;5032284;28;20032;-72
2021/07/04 02:10:26;;;;;;;7.38;3.05;;;;;;;25.47;55.83;99785.66;5032327;28;20033;-72
2021/07/04 02:12:52;;;;;;;7.68;3.53;;;;;;;25.36;55.55;99783.69;5032300;28;20160;-72
2021/07/04 02:15:27;;;;;;;6.43;3.00;;;;;;;25.29;56.19;99781.84;5042977;28;20025;-72
2021/07/04 02:17:52;;;;;;;5.95;2.92;;;;;;;25.26;56.43;99784.97;5052224;28;20040;-72
2021/07/04 02:20:33;;;;;;;5.20;3.10;;;;;;;25.27;56.53;99777.75;5051907;28;20025;-72
2021/07/04 02:23:00;;;;;;;6.90;2.95;;;;;;;25.26;56.14;99779.59;5051823;28;20382;-72
2021/07/04 02:25:26;;;;;;;9.25;3.38;;;;;;;25.24;56.20;99778.19;5050507;28;20120;-72
2021/07/04 02:27:51;;;;;;;7.32;3.08;;;;;;;25.24;56.24;99776.31;5051773;28;20104;-72
2021/07/04 02:30:16;;;;;;;6.07;3.53;;;;;;;25.23;56.35;99771.97;5050757;28;20033;-72
2021/07/04 02:32:42;;;;;;;9.02;4.75;;;;;;;25.23;56.26;99774.66;5033887;28;20030;-72
2021/07/04 02:35:08;;;;;;;7.75;4.00;;;;;;;25.23;56.11;99771.97;5032709;28;20032;-72
2021/07/04 02:37:33;;;;;;;5.53;2.58;;;;;;;25.24;56.30;99770.13;5031715;28;20087;-72
2021/07/04 02:39:59;;;;;;;4.78;2.70;;;;;;;25.23;56.05;99771.97;5031547;28;20025;-72
2021/07/04 02:42:24;;;;;;;6.63;3.15;;;;;;;25.23;56.20;99763.91;5031762;28;20087;-72
2021/07/04 02:44:49;;;;;;;10.38;2.90;;;;;;;25.24;56.34;99767.44;5031665;28;20025;-72
2021/07/04 02:47:15;;;;;;;6.13;2.78;;;;;;;25.23;56.14;99763.91;5031469;28;20104;-72
2021/07/04 02:49:40;;;;;;;4.50;2.80;;;;;;;25.22;56.24;99762.28;5043972;28;20106;-72
2021/07/04 02:52:06;;;;;;;4.88;2.58;;;;;;;25.23;56.06;99761.22;5051406;28;20492;-72
2021/07/04 02:54:31;;;;;;;7.00;3.03;;;;;;;25.23;56.02;99758.53;5051259;28;20467;-72
2021/07/04 02:56:56;;;;;;;4.85;2.55;;;;;;;25.17;56.09;99762.06;5051485;28;20127;-72
2021/07/04 02:59:21;;;;;;;5.22;2.65;;;;;;;25.21;56.40;99763.28;5051422;28;20075;-72
2021/07/04 03:01:47;;;;;;;5.45;2.70;;;;;;;25.20;56.40;99753.56;5051272;28;20037;-72
2021/07/04 03:04:12;;;;;;;4.93;2.92;;;;;;;25.19;56.10;99757.28;5049439;28;20151;-72
2021/07/04 03:06:37;;;;;;;3.60;2.42;;;;;;;25.20;56.32;99758.94;5050973;28;20025;-72
2021/07/04 03:09:04;;;;;;;5.47;3.08;;;;;;;25.14;56.42;99752.56;5051332;28;20025;-72
2021/07/04 03:11:29;;;;;;;4.85;2.28;;;;;;;25.15;56.60;99748.03;5051083;28;20032;-72
2021/07/04 03:13:54;;;;;;;5.60;2.78;;;;;;;25.15;56.49;99748.03;5051001;28;20419;-72
2021/07/04 03:16:20;;;;;;;4.93;2.38;;;;;;;25.16;56.58;99749.69;5051004;28;20116;-72
2021/07/04 03:18:45;;;;;;;6.25;2.20;;;;;;;25.14;56.51;99738.31;5045431;28;20039;-72
2021/07/04 03:21:11;;;;;;;4.57;2.22;;;;;;;25.10;56.64;99734.44;5029509;28;20037;-72
2021/07/04 03:23:36;;;;;;;3.08;2.10;;;;;;;25.10;56.12;99737.13;5050739;28;20021;-72
2021/07/04 03:26:02;;;;;;;4.88;2.35;;;;;;;25.14;56.07;99730.28;5051013;28;20119;-72
2021/07/04 03:28:27;;;;;;;4.13;2.17;;;;;;;25.13;56.31;99725.91;5050980;28;20040;-72
2021/07/04 03:30:53;;;;;;;4.05;2.20;;;;;;;25.14;56.23;99730.28;5050820;28;20041;-72
2021/07/04 03:33:18;;;;;;;6.40;2.40;;;;;;;25.13;56.44;99726.75;5047229;28;20033;-72
2021/07/04 03:35:44;;;;;;;4.30;2.35;;;;;;;25.15;56.44;99729.22;5030970;28;20029;-72
2021/07/04 03:38:09;;;;;;;5.00;2.25;;;;;;;25.16;55.93;99727.34;5030648;28;20130;-72
2021/07/04 03:40:35;;;;;;;3.88;2.25;;;;;;;25.16;56.54;99733.56;5030870;28;20498;-72
2021/07/04 03:43:00;;;;;;;4.05;2.28;;;;;;;25.16;56.48;99730.03;5030685;28;20022;-72
2021/07/04 03:45:25;;;;;;;6.18;2.15;;;;;;;25.14;56.03;99730.28;5032391;28;20558;-72
2021/07/04 03:47:51;;;;;;;5.63;2.40;;;;;;;25.10;56.08;99726.38;5035343;28;20372;-72
2021/07/04 03:50:16;;;;;;;4.30;2.58;;;;;;;25.03;56.67;99728.25;5049902;28;20116;-72
2021/07/04 03:52:43;;;;;;;4.00;1.77;;;;;;;25.09;56.17;99725.53;5034627;28;20317;-72
2021/07/04 03:55:09;;;;;;;5.82;2.63;;;;;;;24.78;56.83;99729.00;5034787;28;20399;-72
2021/07/04 03:57:34;;;;;;;2.70;2.05;;;;;;;24.76;57.06;99733.75;5034355;28;20084;-72
2021/07/04 04:00:01;;;;;;;4.53;1.88;;;;;;;24.96;56.60;99730.16;5034761;28;20025;-72
2021/07/04 04:02:27;;;;;;;4.15;2.03;;;;;;;24.94;56.72;99731.19;5034538;28;20032;-72
2021/07/04 04:04:57;;;;;;;5.15;2.30;;;;;;;24.94;56.49;99722.31;5035534;28;20026;-72
2021/07/04 04:07:23;;;;;;;3.90;1.60;;;;;;;24.91;56.59;99728.94;5037830;28;20029;-72
2021/07/04 04:09:51;;;;;;;4.55;1.80;;;;;;;24.94;56.31;99730.34;5054146;28;20112;-73
2021/07/04 04:12:17;;;;;;;5.65;2.33;;;;;;;24.83;56.79;99736.44;5054352;28;20021;-72
2021/07/04 04:14:43;;;;;;;3.90;1.80;;;;;;;24.73;57.37;99734.19;5054378;28;20356;-72
2021/07/04 04:17:08;;;;;;;4.47;1.73;;;;;;;24.43;57.71;99728.50;5053126;28;20028;-72
2021/07/04 04:19:33;;;;;;;4.22;1.60;;;;;;;24.84;56.69;99728.16;5054319;28;20033;-72
2021/07/04 04:21:59;;;;;;;3.60;1.85;;;;;;;24.90;56.48;99727.31;5052693;28;20467;-73
2021/07/04 04:24:25;;;;;;;7.03;1.42;;;;;;;24.88;56.24;99734.75;5034294;28;20032;-73
2021/07/04 04:26:50;;;;;;;4.50;1.50;;;;;;;24.92;56.56;99732.44;5034118;28;20522;-73
2021/07/04 04:29:16;;;;;;;2.83;1.58;;;;;;;24.93;56.31;99734.91;5034455;28;20080;-72
2021/07/04 04:31:41;;;;;;;2.33;1.25;;;;;;;24.92;56.29;99725.22;5034114;28;20021;-72
2021/07/04 04:34:07;;;;;;;2.42;1.13;;;;;;;24.94;56.04;99728.53;5034130;28;20044;-72
2021/07/04 04:36:32;;;;;;;2.03;1.27;;;;;;;24.91;56.50;99720.88;5034304;28;20067;-72
2021/07/04 04:38:57;;;;;;;2.15;1.05;;;;;;;24.93;56.16;99721.47;5033608;28;20052;-72
2021/07/04 04:41:23;;;;;;;4.15;1.05;;;;;;;24.93;56.24;99715.31;5033709;28;20075;-72
2021/07/04 04:43:48;;;;;;;1.95;0.90;;;;;;;24.90;56.39;99719.25;5033660;28;20061;-73
2021/07/04 04:46:14;;;;;;;1.00;0.70;;;;;;;24.83;56.33;99706.91;5033779;28;20037;-73
2021/07/04 04:48:39;;;;;;;3.05;1.10;;;;;;;24.87;56.30;99708.91;5033869;28;20025;-72
2021/07/04 04:51:06;;;;;;;1.88;0.90;;;;;;;24.90;56.33;99710.34;5033741;28;20033;-73
2021/07/04 04:53:32;;;;;;;1.92;1.17;;;;;;;24.89;56.33;99706.84;5046596;28;20029;-72
2021/07/04 04:55:57;;;;;;;3.35;0.80;;;;;;;24.89;56.03;99708.72;5033312;28;20028;-72
2021/07/04 04:58:23;;;;;;;1.67;0.80;;;;;;;24.90;56.12;99713.03;5033331;28;20025;-72
2021/07/04 05:00:48;;;;;;;1.75;0.55;;;;;;;24.91;56.13;99710.13;5033461;28;20037;-72
2021/07/04 05:03:13;;;;;;;1.08;0.60;;;;;;;24.90;55.98;99702.28;5033468;28;20578;-72
2021/07/04 05:05:39;;;;;;;0.63;0.50;;;;;;;24.88;55.96;99707.91;5033523;28;20116;-72
2021/07/04 05:08:04;;;;;;;0.85;0.40;;;;;;;24.90;55.81;99702.28;5033668;28;20096;-73
2021/07/04 05:10:30;;;;;;;1.85;0.60;;;;;;;24.89;55.95;99704.16;5033907;28;20038;-72
2021/07/04 05:12:55;;;;;;;2.42;0.60;;;;;;;24.90;56.00;99700.44;5040142;28;20057;-72
2021/07/04 05:15:21;;;;;;;1.95;0.40;;;;;;;24.87;56.08;99700.88;5053207;28;20032;-72
2021/07/04 05:17:46;;;;;;;1.40;0.47;;;;;;;24.85;56.01;99696.75;5053121;28;20043;-72
2021/07/04 05:20:12;;;;;;;1.90;0.50;;;;;;;24.85;55.94;99694.88;5053252;28;20025;-72
2021/07/04 05:22:38;;;;;;;0.60;0.28;;;;;;;24.79;56.51;99692.25;5052992;28;20063;-72
2021/07/04 05:25:04;;;;;;;0.50;0.40;;;;;;;24.72;56.51;99686.91;5052806;28;20450;-72
2021/07/04 05:27:29;;;;;;;2.45;0.50;;;;;;;24.82;56.38;99684.59;5051354;28;20021;-72
2021/07/04 05:29:55;;;;;;;1.45;0.40;;;;;;;24.74;56.61;99679.44;5052780;28;20448;-72
2021/07/04 05:32:21;;;;;;;2.28;0.40;;;;;;;24.73;56.57;99683.19;5053014;28;20020;-72
2021/07/04 05:34:46;;;;;;;0.50;0.43;;;;;;;24.70;56.50;99678.25;5052767;28;20025;-72
2021/07/04 05:37:12;;;;;;;1.98;0.60;;;;;;;24.71;56.76;99678.03;5052808;28;20025;-72
2021/07/04 05:39:38;;;;;;;3.55;0.43;;;;;;;24.50;57.13;99681.84;5052775;28;20033;-72
2021/07/04 05:42:03;;;;;;;0.65;0.30;;;;;;;24.66;57.01;99680.53;5049080;28;20542;-72
2021/07/04 05:44:29;;;;;;;0.68;0.30;;;;;;;24.70;56.51;99680.91;5032645;28;20384;-72
2021/07/04 05:46:54;;;;;;;0.75;0.38;;;;;;;24.71;56.51;99683.41;5032793;28;20082;-72
2021/07/04 05:49:20;;;;;;;1.45;0.60;;;;;;;24.41;57.39;99674.22;5032585;28;20045;-72
2021/07/04 05:51:45;;;;;;;0.63;0.40;;;;;;;24.27;57.75;99673.44;5032650;28;20026;-72
2021/07/04 05:54:10;;;;;;;0.50;0.30;;;;;;;24.23;57.89;99672.22;5032535;28;20036;-72
2021/07/04 05:56:37;;;;;;;1.83;0.50;;;;;;;24.62;57.12;99665.88;5033108;28;20496;-72
2021/07/04 05:59:03;;;;;;;0.47;0.40;;;;;;;24.67;56.67;99665.25;5033061;28;20045;-73
2021/07/04 06:01:28;;;;;;;0.77;0.40;;;;;;;24.68;56.80;99669.56;5032389;28;20916;-72
2021/07/04 06:03:53;;;;;;;1.75;0.45;;;;;;;24.70;56.72;99667.50;5032508;28;20514;-72
2021/07/04 06:06:19;;;;;;;2.83;0.30;;;;;;;24.70;56.62;99652.25;5032140;28;20028;-72
2021/07/04 06:08:44;;;;;;;1.58;0.52;;;;;;;24.71;56.37;99653.88;5032424;28;20099;-72
2021/07/04 06:11:09;;;;;;;1.52;0.52;;;;;;;24.72;56.54;99654.69;5032333;28;20097;-72
2021/07/04 06:13:35;;;;;;;1.10;0.45;;;;;;;24.73;56.73;99659.03;5036574;28;20063;-73
2021/07/04 06:16:00;;;;;;;0.68;0.45;;;;;;;24.73;56.38;99656.34;5032221;28;20025;-73
2021/07/04 06:18:25;;;;;;;1.10;0.45;;;;;;;24.69;56.84;99647.09;5033221;28;20034;-73
2021/07/04 06:20:51;;;;;;;1.40;0.40;;;;;;;24.77;56.49;99652.19;5045892;28;20021;-73
2021/07/04 06:23:16;;;;;;;6.43;0.60;;;;;;;24.63;56.89;99645.25;5045556;28;20487;-73
2021/07/04 06:25:42;;;;;;;3.55;0.50;;;;;;;24.77;56.38;99646.81;5035191;28;20663;-73
2021/07/04 06:28:07;;;;;;;2.03;0.75;;;;;;;24.82;57.01;99648.84;5041920;28;20135;-72
2021/07/04 06:30:33;;;;;;;5.55;0.57;;;;;;;24.85;57.18;99643.88;5051913;28;20092;-73
2021/07/04 06:32:58;;;;;;;2.08;0.50;;;;;;;24.85;56.89;99643.06;5044743;28;20026;-73
2021/07/04 06:35:23;;;;;;;2.08;0.68;;;;;;;24.88;57.42;99643.47;5031682;28;20468;-73
2021/07/04 06:37:50;;;;;;;3.15;0.73;;;;;;;24.78;57.39;99635.03;5047590;28;20119;-73
2021/07/04 06:40:15;;;;;;;1.95;0.60;;;;;;;24.86;57.05;99631.25;5051453;28;20029;-73
2021/07/04 06:42:41;;;;;;;2.53;0.57;;;;;;;24.91;57.04;99642.19;5039158;28;20042;-73
2021/07/04 06:45:09;;;;;;;3.03;0.70;;;;;;;24.93;56.73;99634.75;5037987;28;20109;-72
2021/07/04 06:47:35;;;;;;;3.08;0.80;;;;;;;24.84;56.87;99634.19;5050885;28;20495;-72
2021/07/04 06:50:00;;;;;;;3.33;0.82;;;;;;;24.90;56.98;99633.31;5040351;28;20056;-73
2021/07/04 06:52:26;;;;;;;2.78;0.73;;;;;;;24.92;57.06;99633.94;5046808;28;20499;-73
2021/07/04 06:54:51;;;;;;;3.05;0.80;;;;;;;24.88;56.90;99635.41;5042302;28;20036;-73
2021/07/04 06:57:27;;;;;;;3.13;0.70;;;;;;;24.96;57.09;99637.00;5041844;28;20048;-73
2021/07/04 06:59:53;;;;;;;4.63;1.30;;;;;;;24.99;56.50;99639.25;5031292;28;20028;-75
2021/07/04 07:02:18;;;;;;;2.00;0.70;;;;;;;24.97;56.84;99641.31;5033298;28;20080;-76
2021/07/04 07:04:43;;;;;;;1.15;0.80;;;;;;;24.96;56.78;99637.00;5038246;28;20021;-76
2021/07/04 07:07:09;;;;;;;1.33;0.65;;;;;;;24.98;56.60;99637.59;5051024;28;21157;-75
2021/07/04 07:09:34;;;;;;;4.35;0.73;;;;;;;24.93;56.83;99643.63;5037519;28;20080;-73
2021/07/04 07:12:00;;;;;;;3.55;0.75;;;;;;;24.85;56.91;99638.50;5050729;28;20108;-73
2021/07/04 07:14:25;;;;;;;3.92;0.70;;;;;;;24.76;57.50;99645.16;5039873;28;20029;-73
2021/07/04 07:16:50;;;;;;;2.45;0.73;;;;;;;24.84;57.53;99642.25;5036278;28;20395;-73
2021/07/04 07:19:16;;;;;;;4.32;0.90;;;;;;;24.85;57.76;99646.56;5048510;28;20071;-75
2021/07/04 07:21:42;;;;;;;2.25;0.80;;;;;;;24.90;57.84;99649.44;5050545;28;20025;-75
2021/07/04 07:24:08;;;;;;;7.43;1.10;;;;;;;24.86;57.58;99648.22;5037556;28;20041;-75
2021/07/04 07:26:34;;;;;;;3.70;0.95;;;;;;;24.89;57.39;99649.63;5050678;28;20100;-75
2021/07/04 07:29:00;;;;;;;1.75;0.68;;;;;;;24.99;57.62;99644.59;5050809;28;20029;-75
2021/07/04 07:31:25;;;;;;;2.90;0.90;;;;;;;25.06;56.99;99644.56;5051141;28;20071;-75
2021/07/04 07:33:51;;;;;;;3.75;0.90;;;;;;;25.15;56.68;99648.63;5050159;28;20478;-75
2021/07/04 07:36:16;;;;;;;3.83;0.93;;;;;;;25.27;56.26;99657.66;5034749;28;20517;-75
2021/07/04 07:38:41;;;;;;;4.80;0.90;;;;;;;25.52;56.12;99656.84;5035634;28;20070;-73
2021/07/04 07:41:07;;;;;;;3.53;0.80;;;;;;;25.98;54.75;99650.19;5051379;28;20574;-75
2021/07/04 07:43:32;;;;;;;7.22;1.05;;;;;;;26.04;54.64;99646.59;5051301;28;20035;-75
2021/07/04 07:45:58;;;;;;;5.93;0.93;;;;;;;25.80;55.18;99642.09;5051312;28;20029;-75
2021/07/04 07:48:23;;;;;;;2.35;0.80;;;;;;;25.94;54.60;99640.94;5050889;28;20103;-73
2021/07/04 07:50:48;;;;;;;3.85;0.68;;;;;;;25.95;54.86;99634.53;5035922;28;20131;-73
2021/07/04 07:53:14;;;;;;;3.25;0.90;;;;;;;25.93;54.71;99639.31;5031891;28;20057;-73
2021/07/04 07:55:39;;;;;;;1.48;0.63;;;;;;;26.00;54.48;99634.66;5031110;28;20096;-73
2021/07/04 07:58:04;;;;;;;2.15;0.80;;;;;;;26.07;54.11;99634.59;5045010;28;20021;-74
2021/07/04 08:00:30;;;;;;;1.65;0.68;;;;;;;26.06;54.47;99630.25;5051384;28;20021;-74
2021/07/04 08:02:55;;;;;;;2.33;0.60;;;;;;;26.03;54.39;99623.47;5049399;28;20044;-74
2021/07/04 08:05:21;;;;;;;4.13;0.80;;;;;;;25.96;54.48;99621.91;5040669;28;20427;-74
2021/07/04 08:07:46;;;;;;;6.07;1.75;;;;;;;25.93;54.76;99623.16;5036443;28;20016;-73
2021/07/04 08:10:13;;;;;;;2.40;1.98;;;;;;;25.91;54.77;99618.00;5048932;28;20033;-74
2021/07/04 08:12:40;;;;;;;2.80;1.35;;;;;;;25.87;55.01;99613.25;5035594;28;20456;-74
2021/07/04 08:15:06;;;;;;;4.25;1.75;;;;;;;25.82;54.95;99613.13;5030832;28;20511;-74
2021/07/04 08:17:31;;;;;;;5.28;2.00;;;;;;;25.57;55.48;99611.28;5043422;28;20442;-74
2021/07/04 08:19:57;;;;;;;4.28;1.38;;;;;;;25.88;54.66;99618.41;5050659;28;20025;-74
2021/07/04 08:22:22;;;;;;;3.20;1.83;;;;;;;26.28;53.54;99609.91;5035041;28;20051;-74
2021/07/04 08:24:48;;;;;;;9.90;2.22;;;;;;;26.35;53.56;99609.00;5050489;28;20040;-73
2021/07/04 08:27:13;;;;;;;1.98;1.40;;;;;;;26.50;53.03;99607.56;5033938;28;20084;-74
2021/07/04 08:29:38;;;;;;;2.47;1.30;;;;;;;26.14;54.06;99603.03;5044379;28;20472;-74
2021/07/04 08:32:04;;;;;;;2.13;1.40;;;;;;;26.08;54.27;99603.94;5033298;28;20060;-74
2021/07/04 08:34:29;;;;;;;2.70;1.10;;;;;;;25.99;54.27;99605.28;5034517;28;20030;-74
2021/07/04 08:36:55;;;;;;;4.60;1.50;;;;;;;25.91;54.54;99606.44;5035673;28;20116;-74
2021/07/04 08:39:20;;;;;;;3.90;1.30;;;;;;;25.90;54.76;99613.66;5034525;28;20104;-75
2021/07/04 08:41:46;;;;;;;2.63;1.38;;;;;;;26.06;53.93;99608.72;5034234;28;20483;-74
2021/07/04 08:44:11;;;;;;;3.13;1.40;;;;;;;26.06;53.75;99604.16;5038097;28;20426;-74
2021/07/04 08:46:44;;;;;;;3.67;1.35;;;;;;;26.39;53.05;99600.25;5038361;28;20025;-74
2021/07/04 08:49:09;;;;;;;4.30;1.35;;;;;;;26.39;52.95;99600.25;5042150;28;20036;-74
2021/07/04 08:51:35;;;;;;;3.97;1.52;;;;;;;26.60;52.70;99596.28;5037196;28;20041;-73
2021/07/04 08:54:01;;;;;;;4.18;1.50;;;;;;;26.83;51.94;99590.09;5039488;28;20057;-74
2021/07/04 08:56:27;;;;;;;2.63;1.40;;;;;;;26.96;51.82;99593.66;5044820;28;20036;-73
2021/07/04 08:58:52;;;;;;;3.78;1.40;;;;;;;26.73;52.35;99584.47;5043267;28;20379;-74
2021/07/04 09:01:20;;;;;;;2.40;1.20;;;;;;;26.67;52.49;99585.38;5040070;28;20029;-74
2021/07/04 09:03:52;;;;;;;3.25;1.15;;;;;;;26.54;52.79;99582.84;5050497;28;20029;-74
2021/07/04 09:06:45;;;;;;;1.55;1.05;;;;;;;26.52;52.91;99583.91;5037851;28;20025;-78
2021/07/04 09:09:20;;;;;;;2.90;1.00;;;;;;;26.50;52.47;99583.31;5033513;28;20073;-76
2021/07/04 09:12:12;;;;;;;3.03;1.33;;;;;;;26.56;52.29;99580.75;5041648;28;20047;-74
2021/07/04 09:14:48;;;;;;;4.78;1.00;;;;;;;26.52;52.13;99588.47;5044881;28;20034;-70
2021/07/04 09:17:17;;;;;;;2.85;0.98;;;;;;;26.44;51.99;99581.56;5041521;28;20025;-71
2021/07/04 09:19:57;;;;;;;5.07;1.50;;;;;;;26.43;52.84;99587.16;5050610;28;20025;-71
2021/07/04 09:22:38;;;;;;;3.55;1.20;;;;;;;26.41;52.57;99582.00;5053297;28;20063;-71
2021/07/04 09:25:27;;;;;;;2.85;0.80;;;;;;;26.71;52.20;99576.63;5040890;28;20049;-71
2021/07/04 09:28:12;;;;;;;2.40;1.02;;;;;;;27.32;50.76;99579.19;5034692;28;20060;-71
2021/07/04 09:30:51;;;;;;;7.90;1.60;;;;;;;26.85;51.87;99571.03;5043318;28;20383;-71
2021/07/04 09:33:32;;;;;;;6.10;1.10;;;;;;;26.63;52.57;99566.19;5038730;28;20014;-71
2021/07/04 09:36:01;;;;;;;10.52;1.35;;;;;;;26.30;52.99;99564.78;5050390;28;20028;-71
2021/07/04 09:38:32;;;;;;;7.68;1.20;;;;;;;26.55;52.46;99563.78;5041587;28;20037;-74
2021/07/04 09:40:57;;;;;;;;;;;;;;;26.56;52.67;99562.75;5035532;28;20026;-72
2021/07/04 09:43:26;;;;;;;5.10;1.00;;;;;;;26.64;52.20;99561.59;5037722;28;19923;-73
2021/07/04 09:46:00;;;;;;;6.65;1.27;;;;;;;26.69;51.98;99550.97;5032934;28;20493;-73
2021/07/04 09:48:28;;;;;;;1.92;0.70;;;;;;;26.64;52.24;99554.38;5040633;28;20033;-73
2021/07/04 09:50:59;;;;;;;2.17;0.63;;;;;;;26.66;52.35;99554.16;5035893;28;20032;-74
2021/07/04 09:53:33;;;;;;;4.13;0.93;;;;;;;26.28;53.29;99549.88;5032808;28;20610;-75
2021/07/04 09:56:10;;;;;;;2.80;0.70;;;;;;;26.53;53.28;99547.03;5034384;28;20033;-74
2021/07/04 09:58:37;;;;;;;4.47;1.20;;;;;;;26.28;54.40;99549.88;5052015;28;20025;-75
2021/07/04 10:01:02;;;;;;;7.00;0.80;;;;;;;26.05;54.63;99548.75;5052601;28;20029;-74
2021/07/04 10:03:28;;;;;;;2.42;0.80;;;;;;;25.90;54.87;99543.75;5051496;28;20028;-74
2021/07/04 10:05:53;;;;;;;1.65;0.70;;;;;;;25.92;54.83;99543.53;5037629;28;20021;-74
2021/07/04 10:08:20;;;;;;;1.33;0.68;;;;;;;26.54;53.23;99542.47;5037535;28;20025;-74
2021/07/04 10:10:45;;;;;;;3.38;0.80;;;;;;;26.90;52.29;99536.16;5045173;28;20468;-73
2021/07/04 10:13:11;;;;;;;2.63;0.70;;;;;;;27.35;51.27;99543.69;5034442;28;20100;-74
2021/07/04 10:15:39;;;;;;;3.92;1.02;;;;;;;27.69;50.72;99525.81;5043050;28;20371;-74
2021/07/04 10:18:06;;;;;;;2.75;0.70;;;;;;;27.34;51.36;99522.34;5031705;28;20029;-74
2021/07/04 10:20:32;;;;;;;2.65;0.60;;;;;;;26.88;52.84;99522.09;5035385;28;20395;-73
2021/07/04 10:22:58;;;;;;;1.52;0.50;;;;;;;26.78;52.78;99524.53;5032199;28;20029;-74
2021/07/04 10:25:23;;;;;;;7.70;0.70;;;;;;;26.73;52.88;99527.09;5051900;28;20387;-74
2021/07/04 10:27:49;;;;;;;6.60;1.27;;;;;;;26.93;52.28;99518.69;5051926;28;20036;-74
2021/07/04 10:30:15;;;;;;;3.83;0.75;;;;;;;27.22;51.44;99515.06;5046634;28;20466;-74
2021/07/04 10:33:12;;;;;;;3.70;0.73;;;;;;;27.47;50.81;99514.03;5032893;28;20091;-74
2021/07/04 10:36:07;;;;;;;1.55;0.40;;;;;;;27.59;50.24;99522.09;5050654;28;20036;-74
2021/07/04 10:39:01;;;;;;;4.38;0.32;;;;;;;28.04;49.35;99508.75;5033223;28;20076;-75
2021/07/04 10:41:33;;;;;;;1.52;0.60;;;;;;;28.23;48.69;99506.63;5031350;28;20033;-74
2021/07/04 10:44:06;;;;;;;0.47;0.30;;;;;;;28.40;48.41;99501.28;5034706;28;20465;-74
2021/07/04 10:46:44;;;;;;;2.35;0.32;;;;;;;28.20;48.85;99507.13;5035688;28;20026;-82
2021/07/04 10:49:12;;;;;;;3.00;0.63;;;;;;;27.84;48.49;99508.28;5049875;28;20033;-74
2021/07/04 10:52:00;;;;;;;1.35;0.45;;;;;;;27.94;48.98;99511.22;5051576;28;20068;-74
2021/07/04 10:54:41;;;;;;;3.72;0.90;;;;;;;27.78;49.14;99514.66;5049466;28;20036;-74
2021/07/04 10:57:29;;;;;;;9.73;0.80;;;;;;;27.71;49.22;99520.19;5050559;28;20088;-74
2021/07/04 11:02:54;;;;;;;4.43;0.68;;;;;;;27.82;49.15;99510.41;5044810;28;20025;-74
2021/07/04 11:05:49;;;;;;;13.90;0.80;;;;;;;28.00;49.02;99506.75;5035362;28;20044;-81
2021/07/04 11:08:23;;;;;;;9.88;1.15;;;;;;;28.28;48.41;99503.22;5032348;28;20048;-77
2021/07/04 11:10:48;;;;;;;4.70;0.90;;;;;;;28.22;48.48;99498.78;5034460;28;20025;-78
2021/07/04 11:13:16;;;;;;;4.10;0.80;;;;;;;28.26;48.16;99489.16;5045735;28;20151;-76
2021/07/04 11:15:48;;;;;;;2.08;1.08;;;;;;;28.29;48.28;99484.06;5047025;28;20018;-76
2021/07/04 11:18:15;;;;;;;7.32;1.23;;;;;;;28.38;48.41;99489.91;5035555;28;20025;-79
2021/07/04 11:20:42;;;;;;;5.97;1.15;;;;;;;28.44;47.79;99486.22;5031609;28;20022;-78
2021/07/04 11:23:19;;;;;;;3.83;0.90;;;;;;;28.32;48.15;99481.94;5030841;28;20545;-77
2021/07/04 11:25:55;;;;;;;6.28;1.50;;;;;;;28.36;48.06;99481.22;5031594;28;20028;-80
2021/07/04 11:28:28;;;;;;;7.40;2.10;;;;;;;28.38;48.11;99471.00;5031295;28;20030;-77
2021/07/04 11:30:54;;;;;;;7.80;1.42;;;;;;;28.20;48.32;99463.13;5050569;28;20033;-85
2021/07/04 11:33:29;;;;;;;3.90;1.13;;;;;;;28.20;48.49;99466.66;5038768;28;20029;-73
2021/07/04 11:36:09;;;;;;;2.92;1.00;;;;;;;27.85;49.10;99469.47;5031034;28;20026;-73
2021/07/04 11:38:39;;;;;;;1.98;0.95;;;;;;;27.73;49.05;99468.72;5035345;28;20049;-82